Time;durP1;ratioP1;P1;durP2;ratioP2;P2;SDS_P1;SDS_P2;PMS_P1;PMS_P2;Temp;Humidity;BMP_temperature;BMP_pressure;BME280_temperature;BME280_humidity;BME280_pressure;Samples;Min_cycle;Max_cycle;Signal;HPM_P1;HPM_P2
2022/06/21 00:01:13;;;;;;;6.65;3.30;;;10.90;99.90;;;;;;5051545;28;20041;-26
2022/06/21 00:03:40;;;;;;;4.60;2.70;;;10.80;99.90;;;;;;5051829;28;20033;-26
2022/06/21 00:06:06;;;;;;;4.78;3.28;;;10.80;99.90;;;;;;5051760;28;20055;-26
2022/06/21 00:08:35;;;;;;;4.25;2.95;;;10.70;99.90;;;;;;5051823;28;20120;-27
2022/06/21 00:11:01;;;;;;;6.80;2.95;;;10.70;99.90;;;;;;5051305;28;20053;-26
2022/06/21 00:13:30;;;;;;;5.95;3.17;;;10.60;99.90;;;;;;5051434;28;20040;-26
2022/06/21 00:16:00;;;;;;;5.25;2.85;;;10.60;99.90;;;;;;5051194;28;20120;-26
2022/06/21 00:18:28;;;;;;;7.60;3.65;;;10.60;99.90;;;;;;5051038;28;20041;-26
2022/06/21 00:20:54;;;;;;;5.32;3.20;;;10.60;99.90;;;;;;5050697;28;20047;-26
2022/06/21 00:23:26;;;;;;;6.55;3.00;;;10.60;99.90;;;;;;5033601;28;20033;-26
2022/06/21 00:25:52;;;;;;;6.75;3.40;;;10.50;99.90;;;;;;5051408;28;20041;-26
2022/06/21 00:28:19;;;;;;;6.47;3.10;;;10.50;99.90;;;;;;5051107;28;20048;-25
2022/06/21 00:30:47;;;;;;;8.23;3.40;;;10.50;99.90;;;;;;5051492;28;20511;-25
2022/06/21 00:33:18;;;;;;;5.40;2.92;;;10.50;99.90;;;;;;5051084;28;20048;-25
2022/06/21 00:35:47;;;;;;;6.72;3.20;;;10.50;99.90;;;;;;5051285;28;20044;-25
2022/06/21 00:38:14;;;;;;;6.78;3.25;;;10.40;99.90;;;;;;5051197;28;20392;-25
2022/06/21 00:40:41;;;;;;;6.13;3.35;;;10.40;99.90;;;;;;5051620;28;20044;-25
2022/06/21 00:43:19;;;;;;;7.32;3.63;;;10.30;99.90;;;;;;5051531;28;20488;-26
2022/06/21 00:45:47;;;;;;;7.43;3.47;;;10.30;99.90;;;;;;5051016;28;20037;-25
2022/06/21 00:48:26;;;;;;;8.07;3.83;;;10.30;99.90;;;;;;5051794;28;20312;-25
2022/06/21 00:50:56;;;;;;;6.30;3.22;;;10.30;99.90;;;;;;5051912;28;20041;-25
2022/06/21 00:53:25;;;;;;;6.70;3.60;;;10.30;99.90;;;;;;5051628;28;20454;-25
2022/06/21 00:56:04;;;;;;;5.20;3.65;;;10.20;99.90;;;;;;5033715;28;20516;-25
2022/06/21 00:58:31;;;;;;;6.18;3.65;;;10.30;99.90;;;;;;5052035;28;20127;-25
2022/06/21 01:01:05;;;;;;;8.35;3.92;;;10.30;99.90;;;;;;5051580;28;20045;-25
2022/06/21 01:03:55;;;;;;;6.95;3.47;;;10.20;99.90;;;;;;5051667;28;20037;-25
2022/06/21 01:06:27;;;;;;;7.93;3.92;;;10.20;99.90;;;;;;5051279;28;20126;-25
2022/06/21 01:09:14;;;;;;;7.65;3.63;;;10.10;99.90;;;;;;5032888;28;20061;-25
2022/06/21 01:11:44;;;;;;;4.10;3.33;;;10.10;99.90;;;;;;5047335;28;20704;-25
2022/06/21 01:14:10;;;;;;;4.93;3.53;;;10.00;99.90;;;;;;5033561;28;20060;-25
2022/06/21 01:16:39;;;;;;;7.97;4.32;;;10.00;99.90;;;;;;5051074;28;20037;-25
2022/06/21 01:19:14;;;;;;;8.88;3.75;;;9.90;99.90;;;;;;5051343;28;20527;-25
2022/06/21 01:21:44;;;;;;;6.60;3.53;;;9.90;99.90;;;;;;5051555;28;20507;-25
2022/06/21 01:24:28;;;;;;;5.05;3.28;;;9.90;99.90;;;;;;5051105;28;20045;-25
2022/06/21 01:27:03;;;;;;;4.13;3.33;;;9.80;99.90;;;;;;5052397;28;20127;-25
2022/06/21 01:29:32;;;;;;;9.38;3.97;;;9.80;99.90;;;;;;5055085;28;20069;-25
2022/06/21 01:32:04;;;;;;;6.57;3.65;;;9.70;99.90;;;;;;5054839;28;20392;-25
2022/06/21 01:34:31;;;;;;;7.32;3.60;;;9.70;99.90;;;;;;5053588;28;20028;-25
2022/06/21 01:37:02;;;;;;;8.40;4.20;;;9.70;99.90;;;;;;5036612;28;20040;-25
2022/06/21 01:39:39;;;;;;;7.95;4.00;;;9.60;99.90;;;;;;5054112;28;20111;-25
2022/06/21 01:42:19;;;;;;;5.47;3.83;;;9.70;99.90;;;;;;5054324;28;20036;-25
2022/06/21 01:44:49;;;;;;;7.10;3.92;;;9.70;99.90;;;;;;5054778;28;20041;-25
2022/06/21 01:47:19;;;;;;;6.07;4.07;;;9.60;99.90;;;;;;5054559;28;20120;-25
2022/06/21 01:50:00;;;;;;;8.20;4.00;;;9.70;99.90;;;;;;5054418;28;20484;-25
2022/06/21 01:52:31;;;;;;;6.15;4.00;;;9.60;99.90;;;;;;5036365;28;20051;-25
2022/06/21 01:55:04;;;;;;;6.93;4.03;;;9.70;99.90;;;;;;5053779;28;20043;-25
2022/06/21 01:57:30;;;;;;;5.47;4.25;;;9.70;99.90;;;;;;5054113;28;20093;-25
2022/06/21 01:59:58;;;;;;;7.10;4.57;;;9.60;99.90;;;;;;5053057;28;20041;-25
2022/06/21 02:02:30;;;;;;;4.55;3.70;;;9.60;99.90;;;;;;5054038;28;20045;-25
2022/06/21 02:05:04;;;;;;;5.15;4.00;;;9.50;99.90;;;;;;5050515;28;20049;-25
2022/06/21 02:07:35;;;;;;;8.02;3.83;;;9.50;99.90;;;;;;5035873;28;20110;-25
2022/06/21 02:10:12;;;;;;;8.68;4.32;;;9.50;99.90;;;;;;5054047;28;20041;-25
2022/06/21 02:13:04;;;;;;;6.35;4.00;;;9.50;99.90;;;;;;5053604;28;20455;-25
2022/06/21 02:15:43;;;;;;;7.95;4.25;;;9.50;99.90;;;;;;5042254;28;20049;-25
2022/06/21 02:18:11;;;;;;;5.78;4.00;;;9.40;99.90;;;;;;5053234;28;20091;-25
2022/06/21 02:20:55;;;;;;;7.65;4.50;;;9.30;99.90;;;;;;5052812;28;20041;-25
2022/06/21 02:23:22;;;;;;;6.03;4.20;;;9.30;99.90;;;;;;5053473;28;20040;-25
2022/06/21 02:25:53;;;;;;;4.55;3.95;;;9.30;99.90;;;;;;5052678;28;20041;-25
2022/06/21 02:28:20;;;;;;;6.20;4.60;;;9.30;99.90;;;;;;5053297;28;20063;-25
2022/06/21 02:30:49;;;;;;;5.50;4.13;;;9.30;99.90;;;;;;5053381;28;20111;-25
2022/06/21 02:33:27;;;;;;;6.40;5.00;;;9.20;99.90;;;;;;5053387;28;20052;-25
2022/06/21 02:36:10;;;;;;;6.75;4.40;;;9.20;99.90;;;;;;5053437;28;20041;-25
2022/06/21 02:38:40;;;;;;;5.18;3.65;;;9.10;99.90;;;;;;5053252;28;20121;-25
2022/06/21 02:41:29;;;;;;;9.45;4.40;;;9.10;99.90;;;;;;5034284;28;20292;-25
2022/06/21 02:44:01;;;;;;;6.80;4.13;;;9.10;99.90;;;;;;5053417;28;20041;-25
2022/06/21 02:46:30;;;;;;;5.72;4.25;;;9.00;99.90;;;;;;5052772;28;20041;-25
2022/06/21 02:49:01;;;;;;;5.13;4.20;;;9.00;99.90;;;;;;5052847;28;20037;-25
2022/06/21 02:51:41;;;;;;;9.10;4.05;;;9.00;99.90;;;;;;5053214;28;20489;-25
2022/06/21 02:54:32;;;;;;;7.30;4.72;;;9.00;99.90;;;;;;5038978;28;20040;-27
2022/06/21 02:57:14;;;;;;;6.60;4.07;;;9.00;99.90;;;;;;5031601;28;20041;-27
2022/06/21 02:59:42;;;;;;;7.13;4.40;;;9.00;99.90;;;;;;5045158;28;20033;-28
2022/06/21 03:02:14;;;;;;;7.22;4.65;;;8.90;99.90;;;;;;5034211;28;20047;-28
2022/06/21 03:04:47;;;;;;;6.15;4.22;;;9.00;99.90;;;;;;5036668;28;20041;-28
2022/06/21 03:07:19;;;;;;;10.57;5.40;;;9.00;99.90;;;;;;5045245;28;20106;-28
2022/06/21 03:09:45;;;;;;;9.98;4.22;;;9.10;99.90;;;;;;5032732;28;20135;-28
2022/06/21 03:12:19;;;;;;;6.40;4.38;;;9.00;99.90;;;;;;5030657;28;20049;-28
2022/06/21 03:14:48;;;;;;;7.70;4.63;;;9.00;99.90;;;;;;5041455;28;20041;-28
2022/06/21 03:17:18;;;;;;;6.70;4.93;;;9.00;99.90;;;;;;5019064;28;20476;-28
2022/06/21 03:19:50;;;;;;;6.93;4.65;;;8.90;99.90;;;;;;5036144;28;20053;-25
2022/06/21 03:22:25;;;;;;;5.55;4.13;;;8.90;99.90;;;;;;5040756;28;20096;-25
2022/06/21 03:24:55;;;;;;;6.95;4.65;;;8.90;99.90;;;;;;5052299;28;20044;-25
2022/06/21 03:31:13;;;;;;;4.80;4.30;;;8.90;99.90;;;;;;5054071;28;20032;-26
2022/06/21 03:33:45;;;;;;;10.25;4.43;;;8.80;99.90;;;;;;5054177;28;20067;-26
2022/06/21 03:36:15;;;;;;;6.32;4.78;;;8.80;99.90;;;;;;5028253;28;20487;-26
2022/06/21 03:38:51;;;;;;;5.90;5.28;;;8.80;99.90;;;;;;5044096;28;20029;-27
2022/06/21 03:44:12;;;;;;;6.47;4.82;;;8.80;99.90;;;;;;5053204;28;20519;-26
2022/06/21 03:47:09;;;;;;;5.75;4.78;;;8.80;99.90;;;;;;5051921;28;20629;-27
2022/06/21 03:50:01;;;;;;;5.43;4.93;;;8.90;99.90;;;;;;5025213;28;20037;-27
2022/06/21 03:52:46;;;;;;;8.48;4.82;;;8.90;99.90;;;;;;5042529;28;20127;-27
2022/06/21 03:55:11;;;;;;;;;;;8.90;99.90;;;;;;5044171;28;20033;-27
2022/06/21 03:57:44;;;;;;;5.97;5.38;;;9.00;99.90;;;;;;5044496;28;20011;-27
2022/06/21 04:00:12;;;;;;;7.45;5.18;;;8.90;99.90;;;;;;5043963;28;20072;-27
2022/06/21 04:03:04;;;;;;;7.45;5.85;;;8.90;99.90;;;;;;5045253;28;20071;-27
2022/06/21 04:05:33;;;;;;;6.55;5.82;;;9.00;99.90;;;;;;5048534;28;20282;-27
2022/06/21 04:08:28;;;;;;;8.27;5.38;;;9.00;99.90;;;;;;5032567;28;20041;-27
2022/06/21 04:11:17;;;;;;;7.10;5.45;;;9.00;99.90;;;;;;5042260;28;20467;-27
2022/06/21 04:14:16;;;;;;;8.02;5.40;;;8.90;99.90;;;;;;5044091;28;20068;-27
2022/06/21 04:16:51;;;;;;;5.40;4.90;;;8.90;99.90;;;;;;5050598;28;20115;-27
2022/06/21 04:19:24;;;;;;;7.88;5.60;;;8.90;99.90;;;;;;5025377;28;20049;-27
2022/06/21 04:22:13;;;;;;;5.82;5.40;;;9.00;99.90;;;;;;5042261;28;20481;-27
2022/06/21 04:24:50;;;;;;;5.85;5.35;;;9.10;99.90;;;;;;5043247;28;20451;-27
2022/06/21 04:27:20;;;;;;;7.43;5.68;;;9.30;99.90;;;;;;5048870;28;20045;-27
2022/06/21 04:30:06;;;;;;;6.40;5.80;;;9.40;99.90;;;;;;5040353;28;20037;-28
2022/06/21 04:32:43;;;;;;;7.55;6.03;;;9.60;99.90;;;;;;5042074;28;20043;-27
2022/06/21 04:35:23;;;;;;;7.55;5.63;;;9.70;99.90;;;;;;5045428;28;20083;-27
2022/06/21 04:38:04;;;;;;;7.45;6.78;;;9.90;99.90;;;;;;5039433;28;20042;-28
2022/06/21 04:40:40;;;;;;;6.20;5.68;;;10.00;99.90;;;;;;5050037;28;20505;-27
2022/06/21 04:43:24;;;;;;;6.40;5.90;;;10.20;99.90;;;;;;5047504;28;20037;-27
2022/06/21 04:45:57;;;;;;;6.10;5.60;;;10.30;99.90;;;;;;5035848;28;20044;-27
2022/06/21 04:48:59;;;;;;;8.82;6.78;;;10.40;99.90;;;;;;5043169;28;20328;-27
2022/06/21 04:51:35;;;;;;;10.35;6.45;;;10.50;99.90;;;;;;5043834;28;20463;-28
2022/06/21 04:54:18;;;;;;;8.60;6.65;;;10.60;99.90;;;;;;5048654;28;20500;-28
2022/06/21 04:56:58;;;;;;;10.05;7.20;;;10.70;99.90;;;;;;5022394;28;20562;-28
2022/06/21 04:59:45;;;;;;;8.75;7.13;;;10.90;99.90;;;;;;5037939;28;20396;-28
2022/06/21 05:02:26;;;;;;;10.00;6.88;;;11.00;99.90;;;;;;5040143;28;20037;-28
2022/06/21 05:05:15;;;;;;;7.75;6.00;;;11.10;99.90;;;;;;5047741;28;20072;-28
2022/06/21 05:07:46;;;;;;;7.93;6.32;;;11.20;99.90;;;;;;5043615;28;20514;-28
2022/06/21 05:10:32;;;;;;;7.00;5.95;;;11.30;99.90;;;;;;5044702;28;20073;-28
2022/06/21 05:13:02;;;;;;;7.93;6.43;;;11.40;99.90;;;;;;5050371;28;20606;-28
2022/06/21 05:15:39;;;;;;;6.45;5.60;;;11.40;99.90;;;;;;5028398;28;20120;-28
2022/06/21 05:18:14;;;;;;;10.90;6.55;;;11.50;99.90;;;;;;5051713;28;20029;-28
2022/06/21 05:20:53;;;;;;;9.55;7.07;;;11.60;99.90;;;;;;5047291;28;20076;-28
2022/06/21 05:23:21;;;;;;;11.98;6.93;;;11.70;99.90;;;;;;5050639;28;20033;-28
2022/06/21 05:25:49;;;;;;;10.70;7.78;;;11.60;99.90;;;;;;5045766;28;20036;-28
2022/06/21 05:28:39;;;;;;;10.00;6.97;;;11.70;99.90;;;;;;5050817;28;20072;-28
2022/06/21 05:31:18;;;;;;;8.90;6.30;;;11.70;99.90;;;;;;5048741;28;20080;-28
2022/06/21 05:33:49;;;;;;;6.32;5.75;;;11.90;99.90;;;;;;5040297;28;20103;-28
2022/06/21 05:36:26;;;;;;;10.07;6.28;;;11.90;99.90;;;;;;5045738;28;20045;-28
2022/06/21 05:39:14;;;;;;;9.18;6.28;;;12.10;99.90;;;;;;5048134;28;20426;-28
2022/06/21 05:41:43;;;;;;;13.27;6.20;;;12.20;99.90;;;;;;5041857;28;20109;-28
2022/06/21 05:44:17;;;;;;;8.93;5.40;;;12.30;99.90;;;;;;5045808;28;20059;-28
2022/06/21 05:46:47;;;;;;;7.13;4.90;;;12.40;99.90;;;;;;5016353;28;20047;-28
2022/06/21 05:49:31;;;;;;;7.70;4.97;;;12.40;99.90;;;;;;5042429;28;20121;-29
2022/06/21 05:52:00;;;;;;;;;;;12.40;99.90;;;;;;5047670;28;20536;-29
2022/06/21 05:54:49;;;;;;;10.85;5.68;;;12.50;99.90;;;;;;5028534;28;19917;-29
2022/06/21 05:57:19;;;;;;;7.82;5.80;;;12.70;99.90;;;;;;5053450;28;20045;-27
2022/06/21 05:59:45;;;;;;;6.32;4.82;;;12.90;99.90;;;;;;5054527;28;20037;-26
2022/06/21 06:02:43;;;;;;;9.35;5.50;;;13.10;99.90;;;;;;5036825;28;20041;-26
2022/06/21 06:05:18;;;;;;;5.45;4.70;;;13.20;99.90;;;;;;5054816;28;20116;-26
2022/06/21 06:07:52;;;;;;;7.55;5.20;;;13.30;99.90;;;;;;5054622;28;20454;-27
2022/06/21 06:10:21;;;;;;;11.68;5.63;;;13.40;99.90;;;;;;5054279;28;20436;-26
2022/06/21 06:12:51;;;;;;;11.32;4.97;;;13.60;99.90;;;;;;5053521;28;20523;-27
2022/06/21 06:15:23;;;;;;;6.30;4.80;;;13.70;99.90;;;;;;5054066;28;20048;-26
2022/06/21 06:18:11;;;;;;;7.50;5.13;;;13.70;99.90;;;;;;5054144;28;20107;-27
2022/06/21 06:20:44;;;;;;;9.73;5.15;;;13.80;99.90;;;;;;5054196;28;20037;-27
2022/06/21 06:23:31;;;;;;;9.53;4.67;;;13.90;99.90;;;;;;5054055;28;20040;-26
2022/06/21 06:26:37;;;;;;;6.53;4.50;;;14.00;99.90;;;;;;5053934;28;20072;-26
2022/06/21 06:29:17;;;;;;;8.40;5.20;;;14.10;99.90;;;;;;4972694;28;20043;-27
2022/06/21 06:32:10;;;;;;;8.82;4.18;;;14.20;99.90;;;;;;5008355;28;20075;-27
2022/06/21 06:34:42;;;;;;;6.97;3.65;;;14.30;99.90;;;;;;5033809;28;20515;-27
2022/06/21 06:37:31;;;;;;;5.75;2.88;;;14.30;99.90;;;;;;5034028;28;20432;-26
2022/06/21 06:40:05;;;;;;;7.22;3.40;;;14.40;99.90;;;;;;5034315;28;20029;-27
2022/06/21 06:42:36;;;;;;;3.33;2.50;;;14.50;99.90;;;;;;5033980;28;20038;-27
2022/06/21 06:45:14;;;;;;;5.00;2.70;;;14.60;99.90;;;;;;5034120;28;20124;-27
2022/06/21 06:47:46;;;;;;;7.88;3.03;;;14.80;99.90;;;;;;5034148;28;20047;-27
2022/06/21 06:50:34;;;;;;;4.22;2.60;;;14.90;99.90;;;;;;5016888;28;20077;-27
2022/06/21 06:53:15;;;;;;;4.97;2.58;;;15.10;99.90;;;;;;5037018;28;20044;-29
2022/06/21 06:56:03;;;;;;;6.10;2.55;;;15.20;99.90;;;;;;5052517;28;20045;-29
2022/06/21 06:58:31;;;;;;;6.60;2.92;;;15.30;99.90;;;;;;5048505;28;20032;-29
2022/06/21 07:01:17;;;;;;;8.65;2.95;;;15.30;99.90;;;;;;5052065;28;20443;-29
2022/06/21 07:03:47;;;;;;;4.63;2.90;;;15.20;99.90;;;;;;5011059;28;20185;-29
2022/06/21 07:06:20;;;;;;;4.25;2.78;;;15.20;99.90;;;;;;5033605;28;20045;-29
2022/06/21 07:08:55;;;;;;;6.80;3.08;;;15.10;99.90;;;;;;5025645;28;20056;-27
2022/06/21 07:11:28;;;;;;;6.65;3.13;;;15.10;99.90;;;;;;5045471;28;20045;-28
2022/06/21 07:13:54;;;;;;;9.73;3.10;;;15.10;99.90;;;;;;5046998;28;20052;-29
2022/06/21 07:16:23;;;;;;;5.93;2.83;;;15.30;99.90;;;;;;5049286;28;20044;-29
2022/06/21 07:18:58;;;;;;;5.88;2.60;;;15.50;99.90;;;;;;5048052;28;20064;-29
2022/06/21 07:21:24;;;;;;;2.83;2.50;;;15.80;99.90;;;;;;5046117;28;20048;-28
2022/06/21 07:23:52;;;;;;;5.15;2.95;;;16.10;99.90;;;;;;5045509;28;20033;-28
2022/06/21 07:26:32;;;;;;;5.32;3.45;;;16.30;99.90;;;;;;5041490;28;20389;-28
2022/06/21 07:29:09;;;;;;;6.88;2.72;;;16.30;99.90;;;;;;5030381;28;20524;-28
2022/06/21 07:32:07;;;;;;;7.15;3.25;;;16.30;99.90;;;;;;5038791;28;20043;-29
2022/06/21 07:34:35;;;;;;;4.63;3.00;;;16.20;99.90;;;;;;5044391;28;20115;-28
2022/06/21 07:37:15;;;;;;;8.63;3.08;;;16.40;99.90;;;;;;5038987;28;20042;-28
2022/06/21 07:39:50;;;;;;;6.90;3.00;;;16.60;99.90;;;;;;5015347;28;20037;-28
2022/06/21 07:43:03;;;;;;;4.18;2.63;;;16.90;99.90;;;;;;5042693;28;20536;-28
2022/06/21 07:45:38;;;;;;;3.53;2.30;;;17.30;99.90;;;;;;5007476;28;20040;-28
2022/06/21 07:48:29;;;;;;;3.53;2.45;;;17.60;99.90;;;;;;5047848;28;20569;-28
2022/06/21 07:51:14;;;;;;;7.72;2.83;;;17.80;99.90;;;;;;5044963;28;20084;-28
2022/06/21 07:54:08;;;;;;;5.32;2.63;;;18.00;99.90;;;;;;5045478;28;20090;-28
2022/06/21 07:56:40;;;;;;;3.27;2.40;;;18.10;99.90;;;;;;5007515;28;20523;-28
2022/06/21 07:59:12;;;;;;;4.03;2.10;;;18.10;99.90;;;;;;5028585;28;20037;-29
2022/06/21 08:07:29;;;;;;;7.18;2.47;;;18.30;99.90;;;;;;5043647;28;20117;-29
2022/06/21 08:10:08;;;;;;;3.60;2.20;;;18.40;99.90;;;;;;5045809;28;20049;-29
2022/06/21 08:12:34;;;;;;;3.83;2.50;;;18.50;99.90;;;;;;5045384;28;20055;-29
2022/06/21 08:15:02;;;;;;;5.50;2.95;;;18.50;99.90;;;;;;5045375;28;20037;-29
2022/06/21 08:17:34;;;;;;;3.45;2.20;;;18.50;99.90;;;;;;5038009;28;20033;-29
2022/06/21 08:20:15;;;;;;;3.28;2.17;;;18.70;99.90;;;;;;5039782;28;20513;-29
2022/06/21 08:22:44;;;;;;;3.92;2.08;;;18.70;99.90;;;;;;5028077;28;20033;-29
2022/06/21 08:25:10;;;;;;;3.08;1.60;;;18.90;99.90;;;;;;5033028;28;20055;-29
2022/06/21 08:27:47;;;;;;;5.25;1.60;;;18.90;99.90;;;;;;5033587;28;20119;-30
2022/06/21 08:30:19;;;;;;;3.65;2.03;;;19.00;99.90;;;;;;5025245;28;20041;-29
2022/06/21 08:32:50;;;;;;;3.50;2.08;;;19.10;99.90;;;;;;5039176;28;20063;-29
2022/06/21 08:35:30;;;;;;;3.67;1.73;;;19.30;99.90;;;;;;5049657;28;20036;-29
2022/06/21 08:38:00;;;;;;;2.28;1.52;;;19.60;99.90;;;;;;5027977;28;20144;-28
2022/06/21 08:40:46;;;;;;;4.82;1.67;;;19.80;99.90;;;;;;5051631;28;20039;-28
2022/06/21 08:43:58;;;;;;;4.15;1.70;;;20.10;99.90;;;;;;5048161;28;20588;-29
2022/06/21 08:46:58;;;;;;;3.00;1.42;;;20.30;99.90;;;;;;5039393;28;20400;-30
2022/06/21 08:49:38;;;;;;;2.50;1.50;;;20.50;97.50;;;;;;4977928;28;20073;-29
2022/06/21 08:52:10;;;;;;;3.58;1.30;;;20.50;98.30;;;;;;5034898;28;20037;-29
2022/06/21 08:54:56;;;;;;;4.05;1.63;;;20.70;97.50;;;;;;5042046;28;20037;-29
2022/06/21 08:57:22;;;;;;;3.65;1.60;;;20.60;94.80;;;;;;5043582;28;20033;-29
2022/06/21 09:00:11;;;;;;;5.63;1.50;;;20.80;96.90;;;;;;5044416;28;20116;-29
2022/06/21 09:03:25;;;;;;;2.15;1.35;;;21.10;89.60;;;;;;5042688;28;20087;-29
2022/06/21 09:06:10;;;;;;;2.30;1.33;;;21.20;94.60;;;;;;4949487;28;20511;-29
2022/06/21 09:09:04;;;;;;;2.67;1.70;;;21.40;95.30;;;;;;4928706;28;20047;-29
2022/06/21 09:11:51;;;;;;;2.78;1.55;;;21.50;83.80;;;;;;5019193;28;20053;-29
2022/06/21 09:14:23;;;;;;;2.65;1.30;;;21.60;84.70;;;;;;5038870;28;20053;-29
2022/06/21 09:17:16;;;;;;;3.35;1.50;;;21.80;91.40;;;;;;5044148;28;20124;-30
2022/06/21 09:20:01;;;;;;;3.55;1.30;;;22.10;85.80;;;;;;5040348;28;20036;-30
2022/06/21 09:22:32;;;;;;;3.33;1.42;;;22.00;80.20;;;;;;5034495;28;20048;-30
2022/06/21 09:25:13;;;;;;;3.83;1.60;;;21.90;89.20;;;;;;5036693;28;20413;-29
2022/06/21 09:27:51;;;;;;;2.70;1.33;;;22.20;82.90;;;;;;5018785;28;20106;-26
2022/06/21 09:30:29;;;;;;;3.13;1.52;;;22.40;84.60;;;;;;5050450;28;20041;-26
2022/06/21 09:33:30;;;;;;;3.33;1.75;;;22.70;87.50;;;;;;5050703;28;20044;-27
2022/06/21 09:36:11;;;;;;;5.20;1.70;;;22.80;77.00;;;;;;4951056;29;20134;-27
2022/06/21 09:38:41;;;;;;;2.58;1.70;;;22.80;75.90;;;;;;5023232;28;20080;-27
2022/06/21 09:41:25;;;;;;;4.15;1.50;;;22.80;90.80;;;;;;5051530;28;20510;-27
2022/06/21 09:43:51;;;;;;;3.22;1.48;;;22.90;86.50;;;;;;5033570;28;20404;-27
2022/06/21 09:46:35;;;;;;;5.60;1.63;;;22.80;82.50;;;;;;5051110;28;20044;-27
2022/06/21 09:49:22;;;;;;;6.28;1.30;;;23.00;76.00;;;;;;5054862;28;20072;-27
2022/06/21 09:52:18;;;;;;;4.57;2.05;;;23.30;80.10;;;;;;5036593;28;20076;-27
2022/06/21 09:55:15;;;;;;;3.55;1.60;;;23.60;66.80;;;;;;5036509;28;20044;-28
2022/06/21 09:57:57;;;;;;;3.72;1.58;;;23.70;68.60;;;;;;5054594;28;20033;-28
2022/06/21 10:00:33;;;;;;;4.93;1.45;;;24.00;69.00;;;;;;5055079;28;20033;-28
2022/06/21 10:03:31;;;;;;;2.28;1.35;;;24.30;63.90;;;;;;5037570;28;20044;-28
2022/06/21 10:06:14;;;;;;;4.05;1.77;;;24.40;59.40;;;;;;5054495;28;20045;-28
2022/06/21 10:09:09;;;;;;;2.17;1.30;;;24.40;58.80;;;;;;5036075;28;20041;-28
2022/06/21 10:11:42;;;;;;;3.75;2.00;;;24.30;59.00;;;;;;5037253;28;20041;-27
2022/06/21 10:14:30;;;;;;;3.00;1.52;;;24.20;63.10;;;;;;5036919;28;20124;-28
2022/06/21 10:16:58;;;;;;;3.22;1.60;;;24.50;66.80;;;;;;5036136;28;20047;-28
2022/06/21 10:19:24;;;;;;;4.22;1.90;;;24.80;61.40;;;;;;5053890;28;20120;-28
2022/06/21 10:21:59;;;;;;;2.63;1.73;;;25.20;62.20;;;;;;5054525;28;20464;-28
2022/06/21 10:24:51;;;;;;;3.47;1.63;;;25.20;60.10;;;;;;5054663;28;20134;-28
2022/06/21 10:27:41;;;;;;;6.28;1.58;;;25.40;56.50;;;;;;5054709;28;20032;-28
2022/06/21 10:30:44;;;;;;;2.45;1.50;;;25.30;52.50;;;;;;5053454;28;20037;-28
2022/06/21 10:33:36;;;;;;;2.42;1.27;;;25.00;55.80;;;;;;5053968;28;20150;-28
2022/06/21 10:36:29;;;;;;;2.58;1.30;;;25.00;56.70;;;;;;5053670;28;20045;-28
2022/06/21 10:39:13;;;;;;;3.15;1.60;;;25.10;55.70;;;;;;5053790;28;20040;-27
2022/06/21 10:42:46;;;;;;;3.83;1.73;;;25.00;55.70;;;;;;5045865;28;20049;-28
2022/06/21 10:44:42;;;;;;;6.18;2.00;;;25.20;55.50;;;;;;5034978;28;20091;-27
2022/06/21 10:47:32;;;;;;;3.90;1.92;;;25.40;55.30;;;;;;5035598;28;20072;-27
2022/06/21 10:50:27;;;;;;;3.58;1.55;;;25.70;53.40;;;;;;5053423;28;20332;-27
2022/06/21 10:53:17;;;;;;;2.97;1.33;;;25.70;53.70;;;;;;5031461;28;20045;-27
2022/06/21 10:57:09;;;;;;;2.60;1.33;;;26.00;52.50;;;;;;5053197;28;20041;-27
2022/06/21 10:59:13;;;;;;;3.10;1.30;;;26.30;51.20;;;;;;5052475;28;20530;-27
2022/06/21 11:01:47;;;;;;;2.72;1.52;;;26.60;52.70;;;;;;5052913;28;20112;-27
2022/06/21 11:04:22;;;;;;;2.25;1.40;;;26.50;50.10;;;;;;5048662;28;20113;-27
2022/06/21 11:07:24;;;;;;;2.03;1.10;;;26.50;49.60;;;;;;5052929;28;20036;-27
2022/06/21 11:09:53;;;;;;;3.95;1.60;;;26.80;48.50;;;;;;5015108;28;20413;-27
2022/06/21 11:15:43;;;;;;;3.65;1.50;;;27.30;50.10;;;;;;5032880;28;20132;-27
2022/06/21 11:18:34;;;;;;;2.50;1.42;;;27.50;46.10;;;;;;5032456;28;20124;-27
2022/06/21 11:21:13;;;;;;;2.92;1.10;;;27.40;46.60;;;;;;5016014;28;20052;-27
2022/06/21 11:23:54;;;;;;;2.28;1.40;;;27.50;46.40;;;;;;5035344;28;20042;-27
2022/06/21 11:26:29;;;;;;;2.70;1.17;;;27.60;47.10;;;;;;5015029;28;20051;-28
2022/06/21 11:29:16;;;;;;;3.17;1.25;;;27.60;46.80;;;;;;5032869;28;20045;-27
2022/06/21 11:31:58;;;;;;;2.30;1.33;;;27.80;46.20;;;;;;5015653;28;20045;-28
2022/06/21 11:34:59;;;;;;;3.10;1.27;;;27.80;44.20;;;;;;5023346;28;20041;-27
2022/06/21 11:38:06;;;;;;;2.17;0.93;;;27.80;45.50;;;;;;5053011;28;20106;-26
2022/06/21 11:40:41;;;;;;;3.13;1.55;;;27.70;43.40;;;;;;5052980;28;20381;-28
2022/06/21 11:43:34;;;;;;;3.55;1.55;;;28.00;46.00;;;;;;5052701;28;20041;-28
2022/06/21 11:46:33;;;;;;;2.20;1.00;;;28.20;44.10;;;;;;4985821;28;20053;-28
2022/06/21 11:49:33;;;;;;;2.47;0.93;;;28.40;43.70;;;;;;5032901;28;20495;-28
2022/06/21 11:52:28;;;;;;;2.45;0.82;;;28.70;43.10;;;;;;5032404;28;20041;-28
2022/06/21 11:55:28;;;;;;;3.63;0.98;;;28.90;42.90;;;;;;5032563;28;20046;-28
2022/06/21 11:58:16;;;;;;;3.40;0.90;;;29.00;43.10;;;;;;5033051;28;20099;-28
2022/06/21 12:01:11;;;;;;;1.30;0.82;;;29.20;41.50;;;;;;5032652;28;20037;-28
2022/06/21 12:03:56;;;;;;;4.28;0.90;;;29.20;42.70;;;;;;5032286;28;20120;-28
2022/06/21 12:06:57;;;;;;;1.85;0.73;;;29.20;43.30;;;;;;5032486;28;20048;-29
2022/06/21 12:10:00;;;;;;;2.72;0.80;;;29.30;40.50;;;;;;4999474;28;20049;-29
2022/06/21 12:12:48;;;;;;;2.97;1.02;;;29.30;42.00;;;;;;5032445;28;20053;-26
2022/06/21 12:15:44;;;;;;;1.75;1.15;;;29.30;42.20;;;;;;5031074;28;20091;-26
2022/06/21 12:18:17;;;;;;;2.55;1.10;;;29.30;41.40;;;;;;5032460;28;20047;-26
2022/06/21 12:21:09;;;;;;;2.33;1.05;;;29.40;41.20;;;;;;5041319;28;20121;-27
2022/06/21 12:23:41;;;;;;;1.35;0.80;;;29.40;41.70;;;;;;5052661;28;20040;-27
2022/06/21 12:26:13;;;;;;;2.60;0.90;;;29.20;41.40;;;;;;5052574;28;20047;-27
2022/06/21 12:28:40;;;;;;;4.63;1.37;;;29.00;41.00;;;;;;5052169;28;20039;-28
2022/06/21 12:31:22;;;;;;;4.18;1.10;;;28.70;40.70;;;;;;5052811;28;20033;-27
2022/06/21 12:33:50;;;;;;;;;;;28.40;39.80;;;;;;5052800;28;20037;-27
2022/06/21 12:36:31;;;;;;;2.33;1.00;;;28.00;40.10;;;;;;5052078;28;19921;-27
2022/06/21 12:39:05;;;;;;;1.85;1.00;;;27.80;41.10;;;;;;5052085;28;20036;-27
2022/06/21 12:41:44;;;;;;;2.35;0.75;;;27.90;41.60;;;;;;5033887;28;20037;-28
2022/06/21 12:44:26;;;;;;;3.17;0.90;;;28.10;42.20;;;;;;5052467;28;20037;-27
2022/06/21 12:47:20;;;;;;;3.35;1.17;;;28.20;41.90;;;;;;5033475;28;20041;-28
2022/06/21 12:50:14;;;;;;;2.28;0.88;;;28.30;42.70;;;;;;5043169;28;20477;-28
2022/06/21 12:52:54;;;;;;;1.98;0.85;;;28.40;40.00;;;;;;5035087;28;20511;-28
2022/06/21 12:55:58;;;;;;;2.13;1.08;;;28.30;42.50;;;;;;5052177;28;20041;-28
2022/06/21 12:59:01;;;;;;;1.88;0.82;;;28.60;42.50;;;;;;5022647;28;20416;-28
2022/06/21 13:01:32;;;;;;;;;;;28.80;40.20;;;;;;5036099;28;20468;-28
2022/06/21 13:04:35;;;;;;;2.00;0.88;;;28.70;43.10;;;;;;5052116;28;19917;-28
2022/06/21 13:07:22;;;;;;;3.55;0.90;;;28.70;39.40;;;;;;5022612;28;20056;-29
2022/06/21 13:09:54;;;;;;;3.08;1.10;;;28.80;42.20;;;;;;5052261;28;20077;-28
2022/06/21 13:12:42;;;;;;;1.88;0.98;;;29.90;42.90;;;;;;5034580;28;20083;-28
2022/06/21 13:15:08;;;;;;;2.72;1.25;;;30.70;41.50;;;;;;5034659;28;20136;-27
2022/06/21 13:17:54;;;;;;;2.30;0.88;;;30.80;40.40;;;;;;5052597;28;20476;-28
2022/06/21 13:20:44;;;;;;;2.53;1.05;;;30.40;38.30;;;;;;5052274;28;20037;-28
2022/06/21 13:23:48;;;;;;;3.75;1.00;;;29.90;39.00;;;;;;5056652;28;20102;-27
2022/06/21 13:26:45;;;;;;;2.83;1.10;;;29.30;39.70;;;;;;5055901;28;20044;-28
2022/06/21 13:29:29;;;;;;;3.83;1.13;;;28.90;40.00;;;;;;5038665;28;20539;-28
2022/06/21 13:32:00;;;;;;;3.17;1.05;;;28.60;39.70;;;;;;5055172;28;20075;-28
2022/06/21 13:34:40;;;;;;;2.45;1.10;;;28.40;40.70;;;;;;5024858;28;20045;-28
2022/06/21 13:37:22;;;;;;;3.55;1.05;;;27.80;40.10;;;;;;5056540;28;20119;-27
2022/06/21 13:40:04;;;;;;;2.90;1.00;;;28.10;41.90;;;;;;5036418;28;20069;-28
2022/06/21 13:42:37;;;;;;;2.37;0.90;;;28.60;41.80;;;;;;5051134;28;20045;-28
2022/06/21 13:45:10;;;;;;;3.00;1.10;;;29.10;41.40;;;;;;5037906;28;20477;-28
2022/06/21 13:47:54;;;;;;;3.92;1.10;;;29.60;40.20;;;;;;5055171;28;20120;-28
2022/06/21 13:50:39;;;;;;;3.63;1.30;;;29.40;38.40;;;;;;5054416;28;20048;-28
2022/06/21 13:53:13;;;;;;;4.95;1.30;;;29.30;38.20;;;;;;5042519;28;20044;-27
2022/06/21 13:55:54;;;;;;;2.67;1.20;;;28.80;40.80;;;;;;5048363;28;20119;-27
2022/06/21 13:58:40;;;;;;;2.28;1.10;;;28.90;40.90;;;;;;5043078;28;20048;-28
2022/06/21 14:01:23;;;;;;;2.15;1.00;;;29.30;41.40;;;;;;5054585;28;20041;-28
2022/06/21 14:04:17;;;;;;;2.88;0.95;;;29.60;38.50;;;;;;5055208;28;20131;-28
2022/06/21 14:06:50;;;;;;;3.53;1.08;;;29.70;41.40;;;;;;5027826;28;20083;-27
2022/06/21 14:09:40;;;;;;;2.38;1.02;;;30.30;40.60;;;;;;5054972;28;20091;-28